createdAt,value
2023-01-22T00:02:50.150Z,26.33
2023-01-22T00:06:53.049Z,25.60
2023-01-22T00:10:56.735Z,21.07
2023-01-22T00:14:59.915Z,21.47
2023-01-22T00:19:04.292Z,21.93
2023-01-22T00:23:07.482Z,21.97
2023-01-22T00:27:11.617Z,20.20
2023-01-22T00:31:16.956Z,22.27
2023-01-22T00:35:21.260Z,18.60
2023-01-22T00:39:24.114Z,19.70
2023-01-22T00:43:28.399Z,23.93
2023-01-22T00:47:32.189Z,21.07
2023-01-22T00:51:39.266Z,19.93
2023-01-22T00:55:51.564Z,18.97
2023-01-22T00:59:54.355Z,17.13
2023-01-22T01:03:58.306Z,18.20
2023-01-22T01:08:02.682Z,16.47
2023-01-22T01:12:08.795Z,17.10
2023-01-22T01:16:19.654Z,16.77
2023-01-22T01:20:22.564Z,15.57
2023-01-22T01:24:27.201Z,16.47
2023-01-22T01:28:30.070Z,14.67
2023-01-22T01:32:33.218Z,14.27
2023-01-22T01:36:48.308Z,14.10
2023-01-22T01:40:53.698Z,15.87
2023-01-22T01:45:26.842Z,16.47
2023-01-22T01:49:34.229Z,14.63
2023-01-22T01:53:38.692Z,16.17
2023-01-22T01:57:43.309Z,16.47
2023-01-22T02:01:50.437Z,17.33
2023-01-22T02:05:59.712Z,14.67
2023-01-22T02:10:06.267Z,17.77
2023-01-22T02:14:13.660Z,15.70
2023-01-22T02:18:16.734Z,14.33
2023-01-22T02:22:22.545Z,16.60
2023-01-22T02:26:25.563Z,16.07
2023-01-22T02:30:28.599Z,15.10
2023-01-22T02:34:32.676Z,15.67
2023-01-22T02:38:38.004Z,13.70
2023-01-22T02:42:43.076Z,13.53
2023-01-22T02:46:47.508Z,13.53
2023-01-22T02:50:51.340Z,12.67
2023-01-22T02:54:55.809Z,14.60
2023-01-22T02:59:05.316Z,14.23
2023-01-22T03:03:15.768Z,15.23
2023-01-22T03:07:21.412Z,12.73
2023-01-22T03:11:28.565Z,13.03
2023-01-22T03:15:57.789Z,13.47
2023-01-22T03:20:19.054Z,12.73
2023-01-22T03:24:23.887Z,13.60
2023-01-22T03:28:29.191Z,11.23
2023-01-22T03:32:32.447Z,11.40
2023-01-22T03:36:35.672Z,11.73
2023-01-22T03:40:42.022Z,12.77
2023-01-22T03:44:47.051Z,11.30
2023-01-22T03:48:51.941Z,11.60
2023-01-22T03:52:56.944Z,11.67
2023-01-22T03:57:00.470Z,11.33
2023-01-22T04:01:11.249Z,11.47
2023-01-22T04:05:14.777Z,10.80
2023-01-22T04:09:20.277Z,11.13
2023-01-22T04:13:25.083Z,11.50
2023-01-22T04:17:30.435Z,10.37
2023-01-22T04:21:49.021Z,10.03
2023-01-22T04:25:53.214Z,9.80
2023-01-22T04:29:56.653Z,9.27
2023-01-22T04:34:02.617Z,11.13
2023-01-22T04:38:09.035Z,10.23
2023-01-22T04:42:13.184Z,9.97
2023-01-22T04:46:16.271Z,11.20
2023-01-22T04:50:23.158Z,10.70
2023-01-22T04:54:27.566Z,12.50
2023-01-22T04:58:31.338Z,11.50
2023-01-22T05:02:36.021Z,10.80
2023-01-22T05:06:40.683Z,12.33
2023-01-22T05:10:44.129Z,10.93
2023-01-22T05:14:53.289Z,12.27
2023-01-22T05:18:56.672Z,12.80
2023-01-22T05:23:02.193Z,12.17
2023-01-22T05:27:07.197Z,11.87
2023-01-22T05:31:17.848Z,12.47
2023-01-22T05:35:28.274Z,13.13
2023-01-22T05:39:34.150Z,10.13
2023-01-22T05:43:40.393Z,12.13
2023-01-22T05:47:52.761Z,11.67
2023-01-22T05:52:11.411Z,10.20
2023-01-22T05:56:17.094Z,11.13
2023-01-22T06:00:20.577Z,10.47
2023-01-22T06:04:30.971Z,11.10
2023-01-22T06:08:36.149Z,10.00
2023-01-22T06:12:40.557Z,10.33
2023-01-22T06:16:43.378Z,10.53
2023-01-22T06:20:59.547Z,10.03
2023-01-22T06:25:03.793Z,9.47
2023-01-22T06:29:26.330Z,9.10
2023-01-22T06:33:31.366Z,10.20
2023-01-22T06:37:34.563Z,10.77
2023-01-22T06:41:37.843Z,10.17
2023-01-22T06:45:44.734Z,8.97
2023-01-22T06:49:47.863Z,9.90
2023-01-22T06:53:50.627Z,9.63
2023-01-22T06:57:56.188Z,9.30
2023-01-22T07:02:00.408Z,8.60
2023-01-22T07:06:05.171Z,9.63
2023-01-22T07:10:08.665Z,8.93
2023-01-22T07:14:12.085Z,9.43
2023-01-22T07:18:19.606Z,9.57
2023-01-22T07:22:22.731Z,9.00
2023-01-22T07:26:26.292Z,8.40
2023-01-22T07:30:29.471Z,8.73
2023-01-22T07:34:33.887Z,9.13
2023-01-22T07:38:36.737Z,9.27
2023-01-22T07:42:39.728Z,10.03
2023-01-22T07:46:43.496Z,10.23
2023-01-22T07:50:47.745Z,9.33
2023-01-22T07:54:50.560Z,10.47
2023-01-22T07:58:53.543Z,10.37
2023-01-22T08:02:56.632Z,9.80
2023-01-22T08:07:00.978Z,10.60
2023-01-22T08:11:04.529Z,10.90
2023-01-22T08:15:08.457Z,9.80
2023-01-22T08:19:11.643Z,10.13
2023-01-22T08:23:16.163Z,10.37
2023-01-22T08:27:19.436Z,10.97
2023-01-22T08:31:27.939Z,10.77
2023-01-22T08:35:32.020Z,11.00
2023-01-22T08:39:36.563Z,11.17
2023-01-22T08:43:39.423Z,10.73
2023-01-22T08:47:42.394Z,10.13
2023-01-22T08:51:45.462Z,12.50
2023-01-22T08:55:52.659Z,11.67
2023-01-22T09:00:01.086Z,11.20
2023-01-22T09:04:07.293Z,11.60
2023-01-22T09:08:10.290Z,11.90
2023-01-22T09:12:14.625Z,10.97
2023-01-22T09:16:17.557Z,10.57
2023-01-22T09:20:21.064Z,12.50
2023-01-22T09:24:24.978Z,11.87
2023-01-22T09:28:29.697Z,12.47
2023-01-22T09:32:32.955Z,13.07
2023-01-22T09:36:35.854Z,13.23
2023-01-22T09:40:44.031Z,12.87
2023-01-22T09:44:52.688Z,13.47
2023-01-22T09:49:00.670Z,12.60
2023-01-22T09:53:06.273Z,13.53
2023-01-22T09:57:30.748Z,14.50
2023-01-22T10:01:36.788Z,13.00
2023-01-22T10:05:42.869Z,13.83
2023-01-22T10:09:53.113Z,13.57
2023-01-22T10:13:59.757Z,13.63
2023-01-22T10:18:16.250Z,14.67
2023-01-22T10:22:22.237Z,13.60
2023-01-22T10:26:33.823Z,13.00
2023-01-22T10:30:47.328Z,12.30
2023-01-22T10:35:08.269Z,12.03
2023-01-22T10:39:14.408Z,13.50
2023-01-22T10:43:18.753Z,12.30
2023-01-22T10:47:27.297Z,12.97
2023-01-22T10:51:38.270Z,13.67
2023-01-22T10:55:43.253Z,13.90
2023-01-22T10:59:50.673Z,13.03
2023-01-22T11:03:53.632Z,15.00
2023-01-22T11:08:01.284Z,12.90
2023-01-22T11:12:13.064Z,14.77
2023-01-22T11:16:19.299Z,13.77
2023-01-22T11:20:29.463Z,13.07
2023-01-22T11:24:41.081Z,12.93
2023-01-22T11:28:53.884Z,12.90
2023-01-22T11:33:05.905Z,14.23
2023-01-22T11:37:13.797Z,12.13
2023-01-22T11:41:36.740Z,14.53
2023-01-22T11:45:55.204Z,14.30
2023-01-22T11:50:15.709Z,15.00
2023-01-22T11:54:39.944Z,13.47
2023-01-22T11:58:57.538Z,13.43
2023-01-22T12:03:22.179Z,14.13
2023-01-22T12:07:46.425Z,12.63
2023-01-22T12:12:04.569Z,13.40
2023-01-22T12:16:24.697Z,14.13
2023-01-22T12:20:47.378Z,12.67
2023-01-22T12:24:54.718Z,13.33
2023-01-22T12:29:05.028Z,13.83
2023-01-22T12:33:14.625Z,14.30
2023-01-22T12:37:22.584Z,14.10
2023-01-22T12:41:48.933Z,14.53
2023-01-22T12:45:58.833Z,13.63
2023-01-22T12:50:04.860Z,15.10
2023-01-22T12:54:20.237Z,13.17
2023-01-22T12:58:25.983Z,15.60
2023-01-22T13:02:39.115Z,14.40
2023-01-22T13:06:43.800Z,14.17
2023-01-22T13:10:54.441Z,13.30
2023-01-22T13:14:58.637Z,15.30
2023-01-22T13:19:10.250Z,15.73
2023-01-22T13:23:16.764Z,14.10
2023-01-22T13:27:25.942Z,14.20
2023-01-22T13:31:29.317Z,14.30
2023-01-22T13:35:32.377Z,15.13
2023-01-22T13:39:36.686Z,13.80
2023-01-22T13:43:42.297Z,15.40
2023-01-22T13:47:45.344Z,14.07
2023-01-22T13:51:50.680Z,17.17
2023-01-22T13:55:55.678Z,19.97
2023-01-22T14:00:02.332Z,16.97
2023-01-22T14:04:08.858Z,23.47
2023-01-22T14:08:13.598Z,19.13
2023-01-22T14:12:20.931Z,15.77
2023-01-22T14:16:23.868Z,14.77
2023-01-22T14:20:27.060Z,14.97
2023-01-22T14:24:30.407Z,12.43
2023-01-22T14:28:36.556Z,13.50
2023-01-22T14:32:39.694Z,14.70
2023-01-22T14:36:44.839Z,14.97
2023-01-22T14:40:47.901Z,15.97
2023-01-22T14:44:52.235Z,16.07
2023-01-22T14:48:55.128Z,15.60
2023-01-22T14:52:58.422Z,14.20
2023-01-22T14:57:03.235Z,14.10
2023-01-22T15:01:18.859Z,14.57
2023-01-22T15:05:21.792Z,14.00
2023-01-22T15:09:24.814Z,22.93
2023-01-22T15:13:28.147Z,14.73
2023-01-22T15:17:32.548Z,13.67
2023-01-22T15:21:35.613Z,14.40
2023-01-22T15:25:38.670Z,15.10
2023-01-22T15:29:41.963Z,14.17
2023-01-22T15:33:46.273Z,15.93
2023-01-22T15:37:49.261Z,15.17
2023-01-22T15:41:52.174Z,15.13
2023-01-22T15:45:55.182Z,15.10
2023-01-22T15:49:59.615Z,14.70
2023-01-22T15:54:04.622Z,13.90
2023-01-22T15:58:07.971Z,13.47
2023-01-22T16:02:11.808Z,15.20
2023-01-22T16:06:17.433Z,15.00
2023-01-22T16:10:20.771Z,15.37
2023-01-22T16:14:24.058Z,13.87
2023-01-22T16:18:27.237Z,14.23
2023-01-22T16:22:31.843Z,13.83
2023-01-22T16:26:35.843Z,14.03
2023-01-22T16:30:38.902Z,13.43
2023-01-22T16:34:42.632Z,13.27
2023-01-22T16:38:48.009Z,13.77
2023-01-22T16:42:59.920Z,13.60
2023-01-22T16:47:02.787Z,14.50
2023-01-22T16:51:07.347Z,14.07
2023-01-22T16:55:13.364Z,13.13
2023-01-22T16:59:17.036Z,13.40
2023-01-22T17:03:19.998Z,13.60
2023-01-22T17:07:33.190Z,14.23
2023-01-22T17:11:38.476Z,13.97
2023-01-22T17:15:42.088Z,12.83
2023-01-22T17:19:44.904Z,13.37
2023-01-22T17:23:48.214Z,12.83
2023-01-22T17:27:52.648Z,14.20
2023-01-22T17:31:57.207Z,14.13
2023-01-22T17:36:01.001Z,13.40
2023-01-22T17:40:04.287Z,14.27
2023-01-22T17:44:08.609Z,13.00
2023-01-22T17:48:12.686Z,15.00
2023-01-22T17:52:16.711Z,13.60
2023-01-22T17:56:21.656Z,13.90
2023-01-22T18:00:25.841Z,15.23
2023-01-22T18:04:31.521Z,13.80
2023-01-22T18:08:38.376Z,13.77
2023-01-22T18:12:42.168Z,13.20
2023-01-22T18:16:47.302Z,13.93
2023-01-22T18:20:50.763Z,15.00
2023-01-22T18:24:53.770Z,15.87
2023-01-22T18:28:59.131Z,15.87
2023-01-22T18:33:04.899Z,15.33
2023-01-22T18:37:07.937Z,15.63
2023-01-22T18:41:13.554Z,15.30
2023-01-22T18:45:16.994Z,16.73
2023-01-22T18:49:22.761Z,14.37
2023-01-22T18:53:26.174Z,17.00
2023-01-22T18:57:29.913Z,20.53
2023-01-22T19:01:34.975Z,18.57
2023-01-22T19:05:41.155Z,19.13
2023-01-22T19:09:44.169Z,18.97
2023-01-22T19:13:47.697Z,16.47
2023-01-22T19:17:50.877Z,15.60
2023-01-22T19:21:57.955Z,16.93
2023-01-22T19:26:14.758Z,17.27
2023-01-22T19:30:25.661Z,18.90
2023-01-22T19:34:30.334Z,18.33
2023-01-22T19:38:35.800Z,19.47
2023-01-22T19:42:40.494Z,16.53
2023-01-22T19:46:43.669Z,17.87
2023-01-22T19:50:46.797Z,19.60
2023-01-22T19:54:51.453Z,17.40
2023-01-22T19:58:58.726Z,17.43
2023-01-22T20:03:06.549Z,17.73
2023-01-22T20:07:09.463Z,19.17
2023-01-22T20:11:14.981Z,18.13
2023-01-22T20:15:18.509Z,19.53
2023-01-22T20:19:21.531Z,19.10
2023-01-22T20:23:25.438Z,16.80
2023-01-22T20:27:45.804Z,18.73
2023-01-22T20:31:52.221Z,21.03
2023-01-22T20:35:56.786Z,19.07
2023-01-22T20:40:00.000Z,19.40
2023-01-22T20:44:05.229Z,20.43
2023-01-22T20:48:08.329Z,20.30
2023-01-22T20:52:11.557Z,19.73
2023-01-22T20:56:17.024Z,19.00
2023-01-22T21:00:21.840Z,20.37
2023-01-22T21:04:25.035Z,19.43
2023-01-22T21:08:27.928Z,18.70
2023-01-22T21:12:30.919Z,19.50
2023-01-22T21:16:37.603Z,18.37
2023-01-22T21:20:41.515Z,17.40
2023-01-22T21:24:44.842Z,17.40
2023-01-22T21:28:48.866Z,19.50
2023-01-22T21:32:54.307Z,18.70
2023-01-22T21:36:59.498Z,18.47
2023-01-22T21:41:07.441Z,17.57
2023-01-22T21:45:27.860Z,17.17
2023-01-22T21:49:34.717Z,18.37
2023-01-22T21:53:37.574Z,17.37
2023-01-22T21:57:40.368Z,18.70
2023-01-22T22:01:44.841Z,18.33
2023-01-22T22:05:57.368Z,18.10
2023-01-22T22:10:00.410Z,20.17
2023-01-22T22:14:05.635Z,17.97
2023-01-22T22:18:08.889Z,19.53
2023-01-22T22:22:13.275Z,17.30
2023-01-22T22:26:16.679Z,18.17
2023-01-22T22:30:20.220Z,17.97
2023-01-22T22:34:24.147Z,18.23
2023-01-22T22:38:28.325Z,20.83
2023-01-22T22:42:31.175Z,18.67
2023-01-22T22:46:35.785Z,16.67
2023-01-22T22:50:40.949Z,17.23
2023-01-22T22:54:45.170Z,19.00
2023-01-22T22:58:48.113Z,17.03
2023-01-22T23:02:51.055Z,17.03
2023-01-22T23:06:54.289Z,19.60
2023-01-22T23:10:58.734Z,17.53
2023-01-22T23:15:01.879Z,17.20
2023-01-22T23:19:08.955Z,17.30
2023-01-22T23:23:11.917Z,18.37
2023-01-22T23:27:16.628Z,18.23
2023-01-22T23:31:19.882Z,16.90
2023-01-22T23:35:22.745Z,19.13
2023-01-22T23:39:25.741Z,19.57
2023-01-22T23:43:30.707Z,18.17
2023-01-22T23:47:33.861Z,19.70
2023-01-22T23:51:38.145Z,19.60
2023-01-22T23:55:41.137Z,16.93
2023-01-22T23:59:45.757Z,19.73
